sensor_id;sensor_type;location;lat;lon;timestamp;P1;durP1;ratioP1;P2;durP2;ratioP2
12122;SDS011;6125;59.628;17.852;2023-04-06T00:01:06;3.60;;;2.90;;
12122;SDS011;6125;59.628;17.852;2023-04-06T00:03:34;4.23;;;2.53;;
12122;SDS011;6125;59.628;17.852;2023-04-06T00:06:01;4.80;;;3.33;;
12122;SDS011;6125;59.628;17.852;2023-04-06T00:08:29;4.67;;;3.00;;
12122;SDS011;6125;59.628;17.852;2023-04-06T00:10:56;6.83;;;2.97;;
12122;SDS011;6125;59.628;17.852;2023-04-06T00:13:23;3.47;;;2.97;;
12122;SDS011;6125;59.628;17.852;2023-04-06T00:15:50;3.70;;;2.77;;
12122;SDS011;6125;59.628;17.852;2023-04-06T00:18:17;4.87;;;2.57;;
12122;SDS011;6125;59.628;17.852;2023-04-06T00:20:46;6.63;;;3.00;;
12122;SDS011;6125;59.628;17.852;2023-04-06T00:23:13;3.43;;;2.87;;
12122;SDS011;6125;59.628;17.852;2023-04-06T00:25:40;4.00;;;2.83;;
12122;SDS011;6125;59.628;17.852;2023-04-06T00:28:07;3.63;;;2.90;;
12122;SDS011;6125;59.628;17.852;2023-04-06T00:30:34;5.00;;;2.90;;
12122;SDS011;6125;59.628;17.852;2023-04-06T00:33:01;4.67;;;3.10;;
12122;SDS011;6125;59.628;17.852;2023-04-06T00:35:29;6.53;;;3.23;;
12122;SDS011;6125;59.628;17.852;2023-04-06T00:37:57;3.83;;;3.27;;
12122;SDS011;6125;59.628;17.852;2023-04-06T00:40:24;6.60;;;3.40;;
12122;SDS011;6125;59.628;17.852;2023-04-06T00:42:53;4.07;;;2.97;;
12122;SDS011;6125;59.628;17.852;2023-04-06T00:45:20;6.97;;;3.23;;
12122;SDS011;6125;59.628;17.852;2023-04-06T00:47:47;4.77;;;3.50;;
12122;SDS011;6125;59.628;17.852;2023-04-06T00:50:15;5.27;;;3.27;;
12122;SDS011;6125;59.628;17.852;2023-04-06T00:52:42;3.63;;;3.07;;
12122;SDS011;6125;59.628;17.852;2023-04-06T00:55:11;3.37;;;2.67;;
12122;SDS011;6125;59.628;17.852;2023-04-06T00:57:38;5.27;;;3.53;;
12122;SDS011;6125;59.628;17.852;2023-04-06T01:00:06;4.47;;;3.20;;
12122;SDS011;6125;59.628;17.852;2023-04-06T01:02:34;5.50;;;3.03;;
12122;SDS011;6125;59.628;17.852;2023-04-06T01:05:01;4.20;;;3.10;;
12122;SDS011;6125;59.628;17.852;2023-04-06T01:07:28;3.63;;;2.97;;
12122;SDS011;6125;59.628;17.852;2023-04-06T01:09:55;5.20;;;3.53;;
12122;SDS011;6125;59.628;17.852;2023-04-06T01:12:24;5.87;;;3.57;;
12122;SDS011;6125;59.628;17.852;2023-04-06T01:14:51;5.17;;;3.00;;
12122;SDS011;6125;59.628;17.852;2023-04-06T01:17:18;4.00;;;2.83;;
12122;SDS011;6125;59.628;17.852;2023-04-06T01:19:45;5.23;;;3.50;;
12122;SDS011;6125;59.628;17.852;2023-04-06T01:22:16;6.53;;;3.40;;
12122;SDS011;6125;59.628;17.852;2023-04-06T01:24:43;5.30;;;3.60;;
12122;SDS011;6125;59.628;17.852;2023-04-06T01:27:11;5.20;;;3.73;;
12122;SDS011;6125;59.628;17.852;2023-04-06T01:29:39;5.57;;;3.50;;
12122;SDS011;6125;59.628;17.852;2023-04-06T01:32:06;5.83;;;3.43;;
12122;SDS011;6125;59.628;17.852;2023-04-06T01:34:34;4.60;;;3.50;;
12122;SDS011;6125;59.628;17.852;2023-04-06T01:37:01;5.40;;;3.50;;
12122;SDS011;6125;59.628;17.852;2023-04-06T01:39:30;4.97;;;3.33;;
12122;SDS011;6125;59.628;17.852;2023-04-06T01:41:57;4.93;;;3.40;;
12122;SDS011;6125;59.628;17.852;2023-04-06T01:44:24;6.07;;;3.40;;
12122;SDS011;6125;59.628;17.852;2023-04-06T01:46:52;5.70;;;3.53;;
12122;SDS011;6125;59.628;17.852;2023-04-06T01:49:19;4.83;;;3.63;;
12122;SDS011;6125;59.628;17.852;2023-04-06T01:51:46;4.23;;;3.20;;
12122;SDS011;6125;59.628;17.852;2023-04-06T01:54:13;4.67;;;3.37;;
12122;SDS011;6125;59.628;17.852;2023-04-06T01:56:42;3.77;;;2.93;;
12122;SDS011;6125;59.628;17.852;2023-04-06T01:59:09;3.73;;;2.87;;
12122;SDS011;6125;59.628;17.852;2023-04-06T02:01:36;5.10;;;3.40;;
12122;SDS011;6125;59.628;17.852;2023-04-06T02:04:03;3.50;;;2.67;;
12122;SDS011;6125;59.628;17.852;2023-04-06T02:06:30;4.93;;;3.47;;
12122;SDS011;6125;59.628;17.852;2023-04-06T02:08:57;4.73;;;3.40;;
12122;SDS011;6125;59.628;17.852;2023-04-06T02:11:24;4.43;;;3.33;;
12122;SDS011;6125;59.628;17.852;2023-04-06T02:13:54;4.23;;;3.30;;
12122;SDS011;6125;59.628;17.852;2023-04-06T02:16:21;4.93;;;3.20;;
12122;SDS011;6125;59.628;17.852;2023-04-06T02:18:49;4.40;;;3.40;;
12122;SDS011;6125;59.628;17.852;2023-04-06T02:21:16;5.17;;;3.63;;
12122;SDS011;6125;59.628;17.852;2023-04-06T02:23:45;5.10;;;3.70;;
12122;SDS011;6125;59.628;17.852;2023-04-06T02:26:12;4.87;;;3.37;;
12122;SDS011;6125;59.628;17.852;2023-04-06T02:28:39;4.43;;;3.80;;
12122;SDS011;6125;59.628;17.852;2023-04-06T02:31:08;7.53;;;3.63;;
12122;SDS011;6125;59.628;17.852;2023-04-06T02:33:36;5.27;;;3.60;;
12122;SDS011;6125;59.628;17.852;2023-04-06T02:36:03;4.67;;;3.33;;
12122;SDS011;6125;59.628;17.852;2023-04-06T02:38:30;6.17;;;3.47;;
12122;SDS011;6125;59.628;17.852;2023-04-06T02:40:57;4.20;;;3.30;;
12122;SDS011;6125;59.628;17.852;2023-04-06T02:43:24;5.07;;;3.43;;
12122;SDS011;6125;59.628;17.852;2023-04-06T02:45:52;6.23;;;3.53;;
12122;SDS011;6125;59.628;17.852;2023-04-06T02:48:20;5.00;;;3.47;;
12122;SDS011;6125;59.628;17.852;2023-04-06T02:50:47;4.27;;;3.03;;
12122;SDS011;6125;59.628;17.852;2023-04-06T02:53:14;6.07;;;3.80;;
12122;SDS011;6125;59.628;17.852;2023-04-06T02:55:42;6.10;;;4.13;;
12122;SDS011;6125;59.628;17.852;2023-04-06T02:58:09;4.07;;;3.23;;
12122;SDS011;6125;59.628;17.852;2023-04-06T03:00:36;4.43;;;3.33;;
12122;SDS011;6125;59.628;17.852;2023-04-06T03:03:03;4.93;;;3.80;;
12122;SDS011;6125;59.628;17.852;2023-04-06T03:05:32;6.03;;;3.50;;
12122;SDS011;6125;59.628;17.852;2023-04-06T03:07:59;4.97;;;3.87;;
12122;SDS011;6125;59.628;17.852;2023-04-06T03:10:26;5.03;;;3.50;;
12122;SDS011;6125;59.628;17.852;2023-04-06T03:12:53;6.53;;;3.60;;
12122;SDS011;6125;59.628;17.852;2023-04-06T03:15:20;4.03;;;3.20;;
12122;SDS011;6125;59.628;17.852;2023-04-06T03:17:47;7.73;;;3.87;;
12122;SDS011;6125;59.628;17.852;2023-04-06T03:20:14;5.43;;;3.37;;
12122;SDS011;6125;59.628;17.852;2023-04-06T03:22:43;7.30;;;3.70;;
12122;SDS011;6125;59.628;17.852;2023-04-06T03:25:10;5.00;;;3.40;;
12122;SDS011;6125;59.628;17.852;2023-04-06T03:27:37;6.30;;;3.77;;
12122;SDS011;6125;59.628;17.852;2023-04-06T03:30:06;4.87;;;3.50;;
12122;SDS011;6125;59.628;17.852;2023-04-06T03:32:33;3.97;;;3.10;;
12122;SDS011;6125;59.628;17.852;2023-04-06T03:35:00;4.03;;;3.30;;
12122;SDS011;6125;59.628;17.852;2023-04-06T03:37:27;5.10;;;3.23;;
12122;SDS011;6125;59.628;17.852;2023-04-06T03:39:56;5.60;;;3.77;;
12122;SDS011;6125;59.628;17.852;2023-04-06T03:42:24;4.30;;;3.20;;
12122;SDS011;6125;59.628;17.852;2023-04-06T03:44:51;4.30;;;3.40;;
12122;SDS011;6125;59.628;17.852;2023-04-06T03:47:19;3.70;;;2.90;;
12122;SDS011;6125;59.628;17.852;2023-04-06T03:49:46;3.83;;;3.10;;
12122;SDS011;6125;59.628;17.852;2023-04-06T03:52:13;5.97;;;3.17;;
12122;SDS011;6125;59.628;17.852;2023-04-06T03:54:40;4.83;;;3.17;;
12122;SDS011;6125;59.628;17.852;2023-04-06T03:57:08;3.50;;;3.10;;
12122;SDS011;6125;59.628;17.852;2023-04-06T03:59:36;4.57;;;3.27;;
12122;SDS011;6125;59.628;17.852;2023-04-06T04:02:03;4.00;;;3.30;;
12122;SDS011;6125;59.628;17.852;2023-04-06T04:04:30;6.57;;;3.07;;
12122;SDS011;6125;59.628;17.852;2023-04-06T04:06:57;4.30;;;3.03;;
12122;SDS011;6125;59.628;17.852;2023-04-06T04:09:24;4.40;;;3.27;;
12122;SDS011;6125;59.628;17.852;2023-04-06T04:11:51;5.07;;;3.63;;
12122;SDS011;6125;59.628;17.852;2023-04-06T04:14:20;4.53;;;3.50;;
12122;SDS011;6125;59.628;17.852;2023-04-06T04:16:47;4.37;;;3.57;;
12122;SDS011;6125;59.628;17.852;2023-04-06T04:19:14;6.23;;;3.63;;
12122;SDS011;6125;59.628;17.852;2023-04-06T04:21:44;3.50;;;3.00;;
12122;SDS011;6125;59.628;17.852;2023-04-06T04:24:12;5.03;;;3.43;;
12122;SDS011;6125;59.628;17.852;2023-04-06T04:26:40;5.17;;;3.13;;
12122;SDS011;6125;59.628;17.852;2023-04-06T04:29:07;5.80;;;3.43;;
12122;SDS011;6125;59.628;17.852;2023-04-06T04:31:35;4.60;;;3.40;;
12122;SDS011;6125;59.628;17.852;2023-04-06T04:34:03;4.40;;;2.90;;
12122;SDS011;6125;59.628;17.852;2023-04-06T04:36:31;3.37;;;2.87;;
12122;SDS011;6125;59.628;17.852;2023-04-06T04:38:59;4.57;;;3.07;;
12122;SDS011;6125;59.628;17.852;2023-04-06T04:41:26;4.40;;;3.17;;
12122;SDS011;6125;59.628;17.852;2023-04-06T04:43:53;4.03;;;3.03;;
12122;SDS011;6125;59.628;17.852;2023-04-06T04:46:21;6.63;;;3.57;;
12122;SDS011;6125;59.628;17.852;2023-04-06T04:48:49;3.27;;;2.90;;
12122;SDS011;6125;59.628;17.852;2023-04-06T04:51:16;7.53;;;3.57;;
12122;SDS011;6125;59.628;17.852;2023-04-06T04:53:44;3.70;;;3.33;;
12122;SDS011;6125;59.628;17.852;2023-04-06T04:56:11;4.03;;;3.10;;
12122;SDS011;6125;59.628;17.852;2023-04-06T04:58:38;4.17;;;3.50;;
12122;SDS011;6125;59.628;17.852;2023-04-06T05:01:06;5.80;;;3.37;;
12122;SDS011;6125;59.628;17.852;2023-04-06T05:03:33;4.30;;;3.27;;
12122;SDS011;6125;59.628;17.852;2023-04-06T05:06:02;4.97;;;3.20;;
12122;SDS011;6125;59.628;17.852;2023-04-06T05:08:29;4.47;;;3.30;;
12122;SDS011;6125;59.628;17.852;2023-04-06T05:10:56;5.53;;;3.73;;
12122;SDS011;6125;59.628;17.852;2023-04-06T05:13:24;4.87;;;3.50;;
12122;SDS011;6125;59.628;17.852;2023-04-06T05:15:51;4.03;;;3.00;;
12122;SDS011;6125;59.628;17.852;2023-04-06T05:18:18;3.43;;;3.03;;
12122;SDS011;6125;59.628;17.852;2023-04-06T05:20:45;4.10;;;3.03;;
12122;SDS011;6125;59.628;17.852;2023-04-06T05:23:14;5.43;;;3.47;;
12122;SDS011;6125;59.628;17.852;2023-04-06T05:25:41;3.57;;;3.20;;
12122;SDS011;6125;59.628;17.852;2023-04-06T05:28:08;4.33;;;3.43;;
12122;SDS011;6125;59.628;17.852;2023-04-06T05:30:35;3.97;;;3.30;;
12122;SDS011;6125;59.628;17.852;2023-04-06T05:33:03;4.87;;;3.27;;
12122;SDS011;6125;59.628;17.852;2023-04-06T05:35:30;3.60;;;2.80;;
12122;SDS011;6125;59.628;17.852;2023-04-06T05:37:57;3.17;;;2.63;;
12122;SDS011;6125;59.628;17.852;2023-04-06T05:40:26;5.17;;;3.80;;
12122;SDS011;6125;59.628;17.852;2023-04-06T05:42:53;5.57;;;3.30;;
12122;SDS011;6125;59.628;17.852;2023-04-06T05:45:20;5.67;;;3.60;;
12122;SDS011;6125;59.628;17.852;2023-04-06T05:47:47;4.93;;;2.80;;
12122;SDS011;6125;59.628;17.852;2023-04-06T05:50:14;6.13;;;3.37;;
12122;SDS011;6125;59.628;17.852;2023-04-06T05:52:42;4.63;;;3.17;;
12122;SDS011;6125;59.628;17.852;2023-04-06T05:55:11;4.07;;;3.13;;
12122;SDS011;6125;59.628;17.852;2023-04-06T05:57:40;4.00;;;2.90;;
12122;SDS011;6125;59.628;17.852;2023-04-06T06:00:07;5.40;;;3.57;;
12122;SDS011;6125;59.628;17.852;2023-04-06T06:02:35;4.97;;;3.30;;
12122;SDS011;6125;59.628;17.852;2023-04-06T06:05:02;4.93;;;3.60;;
12122;SDS011;6125;59.628;17.852;2023-04-06T06:07:30;4.50;;;3.20;;
12122;SDS011;6125;59.628;17.852;2023-04-06T06:09:57;3.63;;;2.90;;
12122;SDS011;6125;59.628;17.852;2023-04-06T06:12:24;4.20;;;3.50;;
12122;SDS011;6125;59.628;17.852;2023-04-06T06:14:53;3.77;;;3.10;;
12122;SDS011;6125;59.628;17.852;2023-04-06T06:17:20;5.83;;;3.40;;
12122;SDS011;6125;59.628;17.852;2023-04-06T06:19:47;3.83;;;2.97;;
12122;SDS011;6125;59.628;17.852;2023-04-06T06:22:14;4.97;;;3.50;;
12122;SDS011;6125;59.628;17.852;2023-04-06T06:24:42;4.77;;;2.90;;
12122;SDS011;6125;59.628;17.852;2023-04-06T06:27:09;3.60;;;3.10;;
12122;SDS011;6125;59.628;17.852;2023-04-06T06:29:36;5.13;;;3.20;;
12122;SDS011;6125;59.628;17.852;2023-04-06T06:32:05;7.37;;;3.07;;
12122;SDS011;6125;59.628;17.852;2023-04-06T06:34:34;4.97;;;3.13;;
12122;SDS011;6125;59.628;17.852;2023-04-06T06:37:01;4.27;;;3.13;;
12122;SDS011;6125;59.628;17.852;2023-04-06T06:39:28;3.07;;;2.47;;
12122;SDS011;6125;59.628;17.852;2023-04-06T06:41:55;3.33;;;2.80;;
12122;SDS011;6125;59.628;17.852;2023-04-06T06:44:22;4.40;;;2.70;;
12122;SDS011;6125;59.628;17.852;2023-04-06T06:46:50;2.77;;;2.43;;
12122;SDS011;6125;59.628;17.852;2023-04-06T06:49:18;5.13;;;2.73;;
12122;SDS011;6125;59.628;17.852;2023-04-06T06:51:45;3.37;;;2.50;;
12122;SDS011;6125;59.628;17.852;2023-04-06T06:54:13;2.70;;;2.40;;
12122;SDS011;6125;59.628;17.852;2023-04-06T06:56:40;3.37;;;2.57;;
12122;SDS011;6125;59.628;17.852;2023-04-06T06:59:07;3.53;;;2.57;;
12122;SDS011;6125;59.628;17.852;2023-04-06T07:01:34;3.67;;;2.70;;
12122;SDS011;6125;59.628;17.852;2023-04-06T07:04:02;4.83;;;2.63;;
12122;SDS011;6125;59.628;17.852;2023-04-06T07:06:31;4.33;;;3.00;;
12122;SDS011;6125;59.628;17.852;2023-04-06T07:08:58;3.93;;;3.00;;
12122;SDS011;6125;59.628;17.852;2023-04-06T07:11:25;4.30;;;2.57;;
12122;SDS011;6125;59.628;17.852;2023-04-06T07:13:52;2.90;;;2.40;;
12122;SDS011;6125;59.628;17.852;2023-04-06T07:16:19;3.70;;;2.80;;
12122;SDS011;6125;59.628;17.852;2023-04-06T07:18:46;6.37;;;2.63;;
12122;SDS011;6125;59.628;17.852;2023-04-06T07:21:13;5.27;;;2.90;;
12122;SDS011;6125;59.628;17.852;2023-04-06T07:23:42;2.93;;;2.60;;
12122;SDS011;6125;59.628;17.852;2023-04-06T07:26:09;3.30;;;2.70;;
12122;SDS011;6125;59.628;17.852;2023-04-06T07:28:36;2.63;;;2.30;;
12122;SDS011;6125;59.628;17.852;2023-04-06T07:31:03;2.93;;;2.43;;
12122;SDS011;6125;59.628;17.852;2023-04-06T07:33:31;3.77;;;2.83;;
12122;SDS011;6125;59.628;17.852;2023-04-06T07:35:58;4.33;;;2.70;;
12122;SDS011;6125;59.628;17.852;2023-04-06T07:38:25;4.27;;;3.23;;
12122;SDS011;6125;59.628;17.852;2023-04-06T07:40:53;5.53;;;3.40;;
12122;SDS011;6125;59.628;17.852;2023-04-06T07:43:21;5.40;;;3.07;;
12122;SDS011;6125;59.628;17.852;2023-04-06T07:45:48;4.27;;;2.70;;
12122;SDS011;6125;59.628;17.852;2023-04-06T07:48:15;6.60;;;3.23;;
12122;SDS011;6125;59.628;17.852;2023-04-06T07:50:42;3.77;;;2.83;;
12122;SDS011;6125;59.628;17.852;2023-04-06T07:53:09;3.60;;;2.80;;
12122;SDS011;6125;59.628;17.852;2023-04-06T07:55:36;3.03;;;2.73;;
12122;SDS011;6125;59.628;17.852;2023-04-06T07:58:05;3.13;;;2.70;;
12122;SDS011;6125;59.628;17.852;2023-04-06T08:00:32;4.10;;;2.57;;
12122;SDS011;6125;59.628;17.852;2023-04-06T08:03:00;3.43;;;2.60;;
12122;SDS011;6125;59.628;17.852;2023-04-06T08:05:33;2.50;;;2.20;;
12122;SDS011;6125;59.628;17.852;2023-04-06T08:08:00;2.37;;;2.17;;
12122;SDS011;6125;59.628;17.852;2023-04-06T08:10:28;4.67;;;2.10;;
12122;SDS011;6125;59.628;17.852;2023-04-06T08:12:55;3.20;;;2.10;;
12122;SDS011;6125;59.628;17.852;2023-04-06T08:15:23;2.80;;;2.30;;
12122;SDS011;6125;59.628;17.852;2023-04-06T08:17:50;4.00;;;2.40;;
12122;SDS011;6125;59.628;17.852;2023-04-06T08:20:17;2.07;;;1.87;;
12122;SDS011;6125;59.628;17.852;2023-04-06T08:22:45;2.00;;;1.80;;
12122;SDS011;6125;59.628;17.852;2023-04-06T08:25:12;1.93;;;1.73;;
12122;SDS011;6125;59.628;17.852;2023-04-06T08:27:39;2.37;;;2.07;;
12122;SDS011;6125;59.628;17.852;2023-04-06T08:30:06;2.90;;;1.97;;
12122;SDS011;6125;59.628;17.852;2023-04-06T08:32:36;4.17;;;2.03;;
12122;SDS011;6125;59.628;17.852;2023-04-06T08:35:03;2.03;;;1.83;;
12122;SDS011;6125;59.628;17.852;2023-04-06T08:37:31;2.50;;;1.80;;
12122;SDS011;6125;59.628;17.852;2023-04-06T08:39:58;1.87;;;1.70;;
12122;SDS011;6125;59.628;17.852;2023-04-06T08:42:25;2.00;;;1.70;;
12122;SDS011;6125;59.628;17.852;2023-04-06T08:44:57;2.30;;;1.77;;
12122;SDS011;6125;59.628;17.852;2023-04-06T08:47:24;1.83;;;1.60;;
12122;SDS011;6125;59.628;17.852;2023-04-06T08:49:53;1.50;;;1.40;;
12122;SDS011;6125;59.628;17.852;2023-04-06T08:52:21;1.60;;;1.50;;
12122;SDS011;6125;59.628;17.852;2023-04-06T08:54:49;2.13;;;1.53;;
12122;SDS011;6125;59.628;17.852;2023-04-06T08:57:16;1.40;;;1.30;;
12122;SDS011;6125;59.628;17.852;2023-04-06T08:59:44;2.93;;;1.80;;
12122;SDS011;6125;59.628;17.852;2023-04-06T09:02:13;2.20;;;1.50;;
12122;SDS011;6125;59.628;17.852;2023-04-06T09:04:43;2.93;;;1.40;;
12122;SDS011;6125;59.628;17.852;2023-04-06T09:07:13;3.60;;;1.50;;
12122;SDS011;6125;59.628;17.852;2023-04-06T09:09:41;1.60;;;1.40;;
12122;SDS011;6125;59.628;17.852;2023-04-06T09:12:21;1.90;;;1.40;;
12122;SDS011;6125;59.628;17.852;2023-04-06T09:14:49;1.77;;;1.50;;
12122;SDS011;6125;59.628;17.852;2023-04-06T09:17:20;1.90;;;1.70;;
12122;SDS011;6125;59.628;17.852;2023-04-06T09:19:47;2.40;;;1.83;;
12122;SDS011;6125;59.628;17.852;2023-04-06T09:22:16;1.73;;;1.60;;
12122;SDS011;6125;59.628;17.852;2023-04-06T09:24:44;1.67;;;1.50;;
12122;SDS011;6125;59.628;17.852;2023-04-06T09:27:12;3.07;;;1.60;;
12122;SDS011;6125;59.628;17.852;2023-04-06T09:29:40;2.13;;;1.50;;
12122;SDS011;6125;59.628;17.852;2023-04-06T09:32:08;1.87;;;1.60;;
12122;SDS011;6125;59.628;17.852;2023-04-06T09:34:36;4.63;;;1.80;;
12122;SDS011;6125;59.628;17.852;2023-04-06T09:37:14;1.90;;;1.40;;
12122;SDS011;6125;59.628;17.852;2023-04-06T09:39:43;2.00;;;1.50;;
12122;SDS011;6125;59.628;17.852;2023-04-06T09:42:11;1.70;;;1.60;;
12122;SDS011;6125;59.628;17.852;2023-04-06T09:44:38;1.67;;;1.50;;
12122;SDS011;6125;59.628;17.852;2023-04-06T09:47:06;2.43;;;1.40;;
12122;SDS011;6125;59.628;17.852;2023-04-06T09:49:34;1.80;;;1.60;;
12122;SDS011;6125;59.628;17.852;2023-04-06T09:52:07;2.50;;;1.60;;
12122;SDS011;6125;59.628;17.852;2023-04-06T09:54:37;4.43;;;1.87;;
12122;SDS011;6125;59.628;17.852;2023-04-06T09:57:07;2.63;;;1.80;;
12122;SDS011;6125;59.628;17.852;2023-04-06T09:59:47;3.87;;;1.97;;
12122;SDS011;6125;59.628;17.852;2023-04-06T10:02:24;2.00;;;1.70;;
12122;SDS011;6125;59.628;17.852;2023-04-06T10:04:58;2.17;;;1.83;;
12122;SDS011;6125;59.628;17.852;2023-04-06T10:07:31;3.23;;;2.10;;
12122;SDS011;6125;59.628;17.852;2023-04-06T10:09:59;2.73;;;1.80;;
12122;SDS011;6125;59.628;17.852;2023-04-06T10:12:30;3.77;;;1.93;;
12122;SDS011;6125;59.628;17.852;2023-04-06T10:14:57;2.07;;;1.87;;
12122;SDS011;6125;59.628;17.852;2023-04-06T10:17:25;5.63;;;2.70;;
12122;SDS011;6125;59.628;17.852;2023-04-06T10:19:53;2.10;;;1.90;;
12122;SDS011;6125;59.628;17.852;2023-04-06T10:22:29;3.30;;;2.13;;
12122;SDS011;6125;59.628;17.852;2023-04-06T10:25:01;2.43;;;2.03;;
12122;SDS011;6125;59.628;17.852;2023-04-06T10:27:30;4.10;;;1.90;;
12122;SDS011;6125;59.628;17.852;2023-04-06T10:30:02;1.97;;;1.80;;
12122;SDS011;6125;59.628;17.852;2023-04-06T10:32:34;3.60;;;2.30;;
12122;SDS011;6125;59.628;17.852;2023-04-06T10:35:05;2.00;;;1.80;;
12122;SDS011;6125;59.628;17.852;2023-04-06T10:37:45;5.47;;;2.10;;
12122;SDS011;6125;59.628;17.852;2023-04-06T10:40:22;3.93;;;2.30;;
12122;SDS011;6125;59.628;17.852;2023-04-06T10:42:53;2.03;;;1.90;;
12122;SDS011;6125;59.628;17.852;2023-04-06T10:45:22;2.47;;;1.70;;
12122;SDS011;6125;59.628;17.852;2023-04-06T10:47:51;3.57;;;2.20;;
12122;SDS011;6125;59.628;17.852;2023-04-06T10:50:19;2.70;;;1.93;;
12122;SDS011;6125;59.628;17.852;2023-04-06T10:52:58;3.40;;;1.87;;
12122;SDS011;6125;59.628;17.852;2023-04-06T10:55:26;4.00;;;2.40;;
12122;SDS011;6125;59.628;17.852;2023-04-06T10:57:55;3.33;;;1.80;;
12122;SDS011;6125;59.628;17.852;2023-04-06T11:00:22;2.77;;;1.90;;
12122;SDS011;6125;59.628;17.852;2023-04-06T11:02:49;2.43;;;2.00;;
12122;SDS011;6125;59.628;17.852;2023-04-06T11:05:18;1.70;;;1.60;;
12122;SDS011;6125;59.628;17.852;2023-04-06T11:07:45;2.13;;;1.60;;
12122;SDS011;6125;59.628;17.852;2023-04-06T11:10:12;3.87;;;1.93;;
12122;SDS011;6125;59.628;17.852;2023-04-06T11:12:52;2.73;;;2.00;;
12122;SDS011;6125;59.628;17.852;2023-04-06T11:15:21;5.47;;;3.10;;
12122;SDS011;6125;59.628;17.852;2023-04-06T11:17:48;3.00;;;2.13;;
12122;SDS011;6125;59.628;17.852;2023-04-06T11:20:16;4.97;;;2.43;;
12122;SDS011;6125;59.628;17.852;2023-04-06T11:22:48;2.97;;;1.80;;
12122;SDS011;6125;59.628;17.852;2023-04-06T11:25:16;9.07;;;3.03;;
12122;SDS011;6125;59.628;17.852;2023-04-06T11:27:44;7.50;;;2.83;;
12122;SDS011;6125;59.628;17.852;2023-04-06T11:30:14;2.67;;;1.87;;
12122;SDS011;6125;59.628;17.852;2023-04-06T11:32:41;4.20;;;2.33;;
12122;SDS011;6125;59.628;17.852;2023-04-06T11:35:20;2.70;;;1.70;;
12122;SDS011;6125;59.628;17.852;2023-04-06T11:37:48;9.57;;;2.50;;
12122;SDS011;6125;59.628;17.852;2023-04-06T11:40:15;2.50;;;1.87;;
12122;SDS011;6125;59.628;17.852;2023-04-06T11:42:51;4.13;;;2.17;;
12122;SDS011;6125;59.628;17.852;2023-04-06T11:45:20;2.80;;;2.00;;
12122;SDS011;6125;59.628;17.852;2023-04-06T11:47:55;1.87;;;1.67;;
12122;SDS011;6125;59.628;17.852;2023-04-06T11:50:24;5.90;;;2.20;;
12122;SDS011;6125;59.628;17.852;2023-04-06T11:52:57;3.43;;;2.40;;
12122;SDS011;6125;59.628;17.852;2023-04-06T11:55:26;2.10;;;1.70;;
12122;SDS011;6125;59.628;17.852;2023-04-06T11:57:53;2.23;;;1.40;;
12122;SDS011;6125;59.628;17.852;2023-04-06T12:00:22;4.40;;;1.90;;
12122;SDS011;6125;59.628;17.852;2023-04-06T12:02:49;3.50;;;1.97;;
12122;SDS011;6125;59.628;17.852;2023-04-06T12:05:16;3.13;;;1.80;;
12122;SDS011;6125;59.628;17.852;2023-04-06T12:07:43;3.97;;;2.33;;
12122;SDS011;6125;59.628;17.852;2023-04-06T12:10:11;8.37;;;2.00;;
12122;SDS011;6125;59.628;17.852;2023-04-06T12:12:38;22.10;;;3.20;;
12122;SDS011;6125;59.628;17.852;2023-04-06T12:15:05;2.80;;;1.40;;
12122;SDS011;6125;59.628;17.852;2023-04-06T12:17:35;8.40;;;2.83;;
12122;SDS011;6125;59.628;17.852;2023-04-06T12:20:02;2.47;;;1.60;;
12122;SDS011;6125;59.628;17.852;2023-04-06T12:22:29;5.77;;;2.37;;
12122;SDS011;6125;59.628;17.852;2023-04-06T12:24:56;2.73;;;1.73;;
12122;SDS011;6125;59.628;17.852;2023-04-06T12:27:23;8.90;;;2.27;;
12122;SDS011;6125;59.628;17.852;2023-04-06T12:29:51;3.60;;;2.10;;
12122;SDS011;6125;59.628;17.852;2023-04-06T12:32:18;4.10;;;1.90;;
12122;SDS011;6125;59.628;17.852;2023-04-06T12:34:46;3.63;;;1.70;;
12122;SDS011;6125;59.628;17.852;2023-04-06T12:37:14;2.80;;;2.30;;
12122;SDS011;6125;59.628;17.852;2023-04-06T12:39:41;3.80;;;1.87;;
12122;SDS011;6125;59.628;17.852;2023-04-06T12:42:09;10.47;;;3.03;;
12122;SDS011;6125;59.628;17.852;2023-04-06T12:44:37;2.30;;;2.10;;
12122;SDS011;6125;59.628;17.852;2023-04-06T12:47:04;2.87;;;1.80;;
12122;SDS011;6125;59.628;17.852;2023-04-06T12:49:32;5.73;;;1.90;;
12122;SDS011;6125;59.628;17.852;2023-04-06T12:52:01;5.43;;;3.70;;
12122;SDS011;6125;59.628;17.852;2023-04-06T12:54:28;8.33;;;2.30;;
12122;SDS011;6125;59.628;17.852;2023-04-06T12:56:55;4.93;;;1.93;;
12122;SDS011;6125;59.628;17.852;2023-04-06T12:59:22;4.90;;;1.90;;
12122;SDS011;6125;59.628;17.852;2023-04-06T13:01:50;2.10;;;1.90;;
12122;SDS011;6125;59.628;17.852;2023-04-06T13:04:17;4.23;;;2.07;;
12122;SDS011;6125;59.628;17.852;2023-04-06T13:06:44;2.43;;;2.03;;
12122;SDS011;6125;59.628;17.852;2023-04-06T13:09:13;3.93;;;2.33;;
12122;SDS011;6125;59.628;17.852;2023-04-06T13:11:40;2.57;;;1.80;;
12122;SDS011;6125;59.628;17.852;2023-04-06T13:14:07;6.67;;;1.77;;
12122;SDS011;6125;59.628;17.852;2023-04-06T13:16:35;8.07;;;2.37;;
12122;SDS011;6125;59.628;17.852;2023-04-06T13:19:02;2.43;;;1.90;;
12122;SDS011;6125;59.628;17.852;2023-04-06T13:21:29;7.23;;;2.20;;
12122;SDS011;6125;59.628;17.852;2023-04-06T13:23:57;6.17;;;1.80;;
12122;SDS011;6125;59.628;17.852;2023-04-06T13:26:26;3.33;;;2.10;;
12122;SDS011;6125;59.628;17.852;2023-04-06T13:28:53;2.80;;;1.83;;
12122;SDS011;6125;59.628;17.852;2023-04-06T13:31:21;3.37;;;2.13;;
12122;SDS011;6125;59.628;17.852;2023-04-06T13:33:48;6.50;;;2.50;;
12122;SDS011;6125;59.628;17.852;2023-04-06T13:36:16;2.53;;;2.10;;
12122;SDS011;6125;59.628;17.852;2023-04-06T13:38:43;4.80;;;2.13;;
12122;SDS011;6125;59.628;17.852;2023-04-06T13:41:10;2.90;;;1.90;;
12122;SDS011;6125;59.628;17.852;2023-04-06T13:43:48;3.47;;;1.90;;
12122;SDS011;6125;59.628;17.852;2023-04-06T13:46:16;5.50;;;2.20;;
12122;SDS011;6125;59.628;17.852;2023-04-06T13:48:43;8.63;;;2.20;;
12122;SDS011;6125;59.628;17.852;2023-04-06T13:51:12;6.07;;;1.90;;
12122;SDS011;6125;59.628;17.852;2023-04-06T13:53:40;2.10;;;1.60;;
12122;SDS011;6125;59.628;17.852;2023-04-06T13:56:07;11.13;;;2.57;;
12122;SDS011;6125;59.628;17.852;2023-04-06T13:58:35;3.37;;;2.00;;
12122;SDS011;6125;59.628;17.852;2023-04-06T14:01:04;3.50;;;1.77;;
12122;SDS011;6125;59.628;17.852;2023-04-06T14:03:32;4.77;;;1.90;;
12122;SDS011;6125;59.628;17.852;2023-04-06T14:05:59;3.20;;;2.53;;
12122;SDS011;6125;59.628;17.852;2023-04-06T14:08:26;8.30;;;1.80;;
12122;SDS011;6125;59.628;17.852;2023-04-06T14:10:54;3.60;;;2.13;;
12122;SDS011;6125;59.628;17.852;2023-04-06T14:13:21;5.27;;;2.27;;
12122;SDS011;6125;59.628;17.852;2023-04-06T14:15:52;4.33;;;1.93;;
12122;SDS011;6125;59.628;17.852;2023-04-06T14:18:21;4.13;;;2.30;;
12122;SDS011;6125;59.628;17.852;2023-04-06T14:20:53;4.07;;;2.00;;
12122;SDS011;6125;59.628;17.852;2023-04-06T14:23:21;2.70;;;1.87;;
12122;SDS011;6125;59.628;17.852;2023-04-06T14:25:48;4.77;;;2.50;;
12122;SDS011;6125;59.628;17.852;2023-04-06T14:28:15;6.23;;;2.20;;
12122;SDS011;6125;59.628;17.852;2023-04-06T14:30:42;4.20;;;1.70;;
12122;SDS011;6125;59.628;17.852;2023-04-06T14:33:09;3.63;;;1.97;;
12122;SDS011;6125;59.628;17.852;2023-04-06T14:35:39;6.80;;;2.37;;
12122;SDS011;6125;59.628;17.852;2023-04-06T14:38:06;19.37;;;3.10;;
12122;SDS011;6125;59.628;17.852;2023-04-06T14:40:34;6.67;;;2.23;;
12122;SDS011;6125;59.628;17.852;2023-04-06T14:43:02;3.33;;;1.70;;
12122;SDS011;6125;59.628;17.852;2023-04-06T14:45:32;2.20;;;2.00;;
12122;SDS011;6125;59.628;17.852;2023-04-06T14:48:01;4.20;;;2.20;;
12122;SDS011;6125;59.628;17.852;2023-04-06T14:50:30;3.20;;;1.80;;
12122;SDS011;6125;59.628;17.852;2023-04-06T14:52:59;4.33;;;2.07;;